Time;durP1;ratioP1;P1;durP2;ratioP2;P2;SDS_P1;SDS_P2;PMS_P1;PMS_P2;Temp;Humidity;BMP_temperature;BMP_pressure;BME280_temperature;BME280_humidity;BME280_pressure;Samples;Min_cycle;Max_cycle;Signal;HPM_P1;HPM_P2
2023/11/06 00:00:33;;;;;;;1.58;0.93;;;17.00;70.20;;;;;;5032493;28;20037;-65
2023/11/06 00:02:59;;;;;;;2.17;0.70;;;16.90;70.20;;;;;;5026517;28;20041;-66
2023/11/06 00:05:25;;;;;;;1.65;0.90;;;16.90;70.20;;;;;;5031194;28;20517;-65
2023/11/06 00:07:51;;;;;;;2.45;0.98;;;16.90;70.10;;;;;;5007675;28;20056;-66
2023/11/06 00:10:17;;;;;;;2.50;1.00;;;16.90;70.10;;;;;;5031212;28;21064;-67
2023/11/06 00:12:43;;;;;;;1.10;0.60;;;16.90;70.20;;;;;;5029528;28;20119;-67
2023/11/06 00:15:10;;;;;;;1.67;0.77;;;17.00;70.20;;;;;;5033447;28;20475;-64
2023/11/06 00:17:37;;;;;;;1.90;0.70;;;16.90;70.20;;;;;;5025870;28;20052;-64
2023/11/06 00:20:03;;;;;;;4.03;1.65;;;16.90;70.10;;;;;;5028893;28;20029;-65
2023/11/06 00:22:30;;;;;;;2.28;0.90;;;16.90;70.10;;;;;;5032388;28;20026;-65
2023/11/06 00:24:56;;;;;;;1.35;0.85;;;16.90;70.10;;;;;;5029987;28;20367;-65
2023/11/06 00:27:25;;;;;;;3.20;0.90;;;16.90;70.10;;;;;;5012511;28;20053;-65
2023/11/06 00:29:50;;;;;;;2.08;0.90;;;16.90;70.20;;;;;;5033697;28;20478;-67
2023/11/06 00:32:16;;;;;;;1.20;0.77;;;16.90;70.10;;;;;;5028014;28;20033;-66
2023/11/06 00:34:42;;;;;;;1.50;0.68;;;16.90;70.10;;;;;;5012831;28;20025;-66
2023/11/06 00:37:08;;;;;;;1.70;1.02;;;16.90;70.10;;;;;;5009128;28;20033;-67
2023/11/06 00:39:35;;;;;;;1.42;0.70;;;16.90;70.10;;;;;;5030174;28;20462;-66
2023/11/06 00:42:02;;;;;;;1.38;0.73;;;16.90;70.10;;;;;;5027924;28;20030;-66
2023/11/06 00:44:28;;;;;;;1.13;0.70;;;16.90;70.10;;;;;;5030228;28;20026;-67
2023/11/06 00:46:54;;;;;;;0.95;0.80;;;16.90;70.10;;;;;;5028883;28;20055;-66
2023/11/06 00:49:20;;;;;;;0.85;0.63;;;16.90;70.10;;;;;;5029856;28;20022;-66
2023/11/06 00:51:46;;;;;;;1.27;0.68;;;16.90;70.10;;;;;;5028699;28;20028;-66
2023/11/06 00:54:14;;;;;;;0.63;0.52;;;16.90;70.10;;;;;;5036972;28;20025;-67
2023/11/06 00:56:40;;;;;;;2.95;0.68;;;16.90;70.10;;;;;;5029796;28;20033;-66
2023/11/06 00:59:06;;;;;;;2.08;0.65;;;16.90;70.00;;;;;;5011854;28;20039;-66
2023/11/06 01:01:31;;;;;;;1.05;0.55;;;16.90;70.10;;;;;;5025683;28;20029;-66
2023/11/06 01:03:57;;;;;;;1.10;0.50;;;16.90;70.10;;;;;;5010216;28;20041;-65
2023/11/06 01:06:24;;;;;;;1.60;0.70;;;16.90;70.10;;;;;;5028197;28;20044;-66
2023/11/06 01:08:49;;;;;;;1.60;0.70;;;16.90;70.10;;;;;;5029219;28;20518;-67
2023/11/06 01:11:15;;;;;;;1.30;0.50;;;16.90;70.10;;;;;;5010599;28;20064;-65
2023/11/06 01:13:41;;;;;;;0.68;0.50;;;16.90;70.10;;;;;;5027944;28;20068;-66
2023/11/06 01:16:07;;;;;;;0.82;0.60;;;16.90;70.20;;;;;;5009651;28;20034;-66
2023/11/06 01:18:32;;;;;;;1.05;0.65;;;16.90;70.10;;;;;;5028103;28;20388;-67
2023/11/06 01:20:58;;;;;;;0.70;0.50;;;16.90;70.10;;;;;;5026922;28;20030;-66
2023/11/06 01:23:24;;;;;;;1.77;0.90;;;16.90;70.10;;;;;;5025443;28;20377;-66
2023/11/06 01:25:50;;;;;;;1.55;0.60;;;16.90;70.00;;;;;;5027083;28;20087;-67
2023/11/06 01:28:16;;;;;;;1.05;0.55;;;16.90;70.00;;;;;;5027316;28;20104;-66
2023/11/06 01:30:42;;;;;;;1.75;0.60;;;16.90;70.00;;;;;;5025271;28;20045;-66
2023/11/06 01:33:07;;;;;;;1.13;0.82;;;16.90;70.00;;;;;;5028569;28;20025;-67
2023/11/06 01:35:33;;;;;;;0.98;0.50;;;16.90;70.00;;;;;;5027690;28;20033;-67
2023/11/06 01:38:00;;;;;;;0.77;0.50;;;16.90;70.00;;;;;;5026218;28;20029;-67
2023/11/06 01:40:30;;;;;;;1.60;0.63;;;16.90;70.00;;;;;;5028054;28;20033;-67
2023/11/06 01:42:56;;;;;;;0.80;0.60;;;16.90;70.00;;;;;;5010879;28;20029;-66
2023/11/06 01:45:21;;;;;;;1.10;0.50;;;16.90;70.00;;;;;;5011126;28;20425;-65
2023/11/06 01:47:48;;;;;;;2.42;0.60;;;16.90;70.00;;;;;;5028770;28;20028;-65
2023/11/06 01:50:15;;;;;;;1.40;0.68;;;16.90;70.00;;;;;;5011829;28;20038;-67
2023/11/06 01:52:42;;;;;;;0.82;0.50;;;16.90;70.00;;;;;;5030511;28;20387;-67
2023/11/06 01:55:09;;;;;;;1.58;0.60;;;16.90;70.00;;;;;;5012808;28;20060;-64
2023/11/06 01:57:35;;;;;;;1.20;0.60;;;16.90;70.00;;;;;;5012367;28;20116;-64
2023/11/06 02:00:01;;;;;;;0.63;0.40;;;16.90;70.00;;;;;;5030945;28;20201;-65
2023/11/06 02:02:27;;;;;;;0.60;0.43;;;16.90;70.00;;;;;;5011717;28;20029;-67
2023/11/06 02:04:53;;;;;;;1.23;0.40;;;16.90;70.00;;;;;;5029482;28;20025;-67
2023/11/06 02:07:18;;;;;;;0.60;0.40;;;16.90;70.00;;;;;;5027853;28;20442;-66
2023/11/06 02:09:45;;;;;;;1.65;0.57;;;16.90;70.00;;;;;;5012404;28;20088;-65
2023/11/06 02:12:11;;;;;;;0.30;0.20;;;16.90;69.90;;;;;;5029007;28;20527;-65
2023/11/06 02:14:54;;;;;;;0.70;0.50;;;16.90;70.00;;;;;;5026329;28;20041;-64
2023/11/06 02:17:21;;;;;;;1.00;0.60;;;16.90;70.00;;;;;;5027247;28;20127;-67
2023/11/06 02:19:47;;;;;;;1.30;0.50;;;16.80;69.90;;;;;;5009946;28;20028;-67
2023/11/06 02:22:17;;;;;;;1.00;0.52;;;16.90;69.90;;;;;;5026286;28;20033;-67
2023/11/06 02:24:43;;;;;;;1.15;0.60;;;16.90;70.00;;;;;;5008066;28;20026;-65
2023/11/06 02:27:08;;;;;;;1.08;0.60;;;16.90;69.90;;;;;;5025609;28;20443;-65
2023/11/06 02:29:35;;;;;;;1.55;0.60;;;16.80;69.90;;;;;;5026999;28;20022;-64
2023/11/06 02:32:02;;;;;;;0.52;0.30;;;16.90;69.90;;;;;;5020885;28;20030;-65
2023/11/06 02:34:28;;;;;;;1.15;0.68;;;16.90;70.00;;;;;;5025902;28;20368;-62
2023/11/06 02:36:54;;;;;;;0.63;0.40;;;16.90;70.00;;;;;;5025816;28;20033;-66
2023/11/06 02:39:20;;;;;;;0.55;0.40;;;16.90;69.90;;;;;;5008386;28;20436;-65
2023/11/06 02:41:46;;;;;;;0.65;0.40;;;16.90;69.90;;;;;;5026568;28;20037;-67
2023/11/06 02:44:12;;;;;;;0.50;0.50;;;16.90;69.90;;;;;;5024268;28;20419;-67
2023/11/06 02:46:38;;;;;;;0.55;0.38;;;16.80;69.80;;;;;;5024366;28;20041;-67
2023/11/06 02:49:03;;;;;;;0.52;0.40;;;16.90;69.90;;;;;;5024648;28;20052;-66
2023/11/06 02:51:29;;;;;;;0.98;0.60;;;16.80;69.80;;;;;;5024368;28;20030;-63
2023/11/06 02:53:55;;;;;;;0.63;0.40;;;16.80;69.80;;;;;;5024669;28;20099;-67
2023/11/06 02:56:20;;;;;;;0.80;0.50;;;16.80;69.80;;;;;;5024143;28;20065;-66
2023/11/06 02:58:46;;;;;;;0.65;0.43;;;16.80;69.80;;;;;;5007843;28;20038;-66
2023/11/06 03:01:11;;;;;;;1.67;0.50;;;16.80;69.80;;;;;;5022428;28;20036;-66
2023/11/06 03:03:37;;;;;;;1.05;0.40;;;16.80;69.80;;;;;;5024468;28;20049;-65
2023/11/06 03:06:05;;;;;;;0.68;0.40;;;16.80;69.80;;;;;;5023445;28;20044;-65
2023/11/06 03:08:30;;;;;;;0.50;0.32;;;16.80;69.80;;;;;;5023219;28;20237;-65
2023/11/06 03:10:56;;;;;;;1.95;0.50;;;16.80;69.90;;;;;;5025394;28;20029;-65
2023/11/06 03:13:21;;;;;;;0.55;0.32;;;16.80;69.80;;;;;;5020124;28;20064;-64
2023/11/06 03:15:47;;;;;;;1.95;0.40;;;16.80;69.80;;;;;;5025954;28;20030;-66
2023/11/06 03:18:13;;;;;;;1.08;0.40;;;16.80;69.80;;;;;;5025177;28;20041;-64
2023/11/06 03:20:39;;;;;;;0.55;0.45;;;16.80;69.80;;;;;;5015434;28;20431;-66
2023/11/06 03:23:05;;;;;;;1.05;0.40;;;16.80;69.80;;;;;;5030150;28;20026;-66
2023/11/06 03:25:31;;;;;;;2.28;0.30;;;16.80;69.80;;;;;;5036416;28;20032;-67
2023/11/06 03:27:57;;;;;;;0.30;0.30;;;16.80;69.70;;;;;;5025336;28;20032;-66
2023/11/06 03:30:22;;;;;;;2.35;0.88;;;16.80;69.70;;;;;;5031290;28;20189;-66
2023/11/06 03:32:48;;;;;;;0.43;0.40;;;16.80;70.40;;;;;;5035151;28;20068;-65
2023/11/06 03:35:13;;;;;;;1.30;0.43;;;16.80;69.70;;;;;;5009651;28;20022;-65
2023/11/06 03:37:39;;;;;;;2.20;0.45;;;16.80;69.70;;;;;;5037139;28;20567;-65
2023/11/06 03:40:06;;;;;;;0.45;0.20;;;16.80;70.40;;;;;;5022337;28;20294;-66
2023/11/06 03:42:32;;;;;;;0.82;0.52;;;16.80;69.70;;;;;;5030997;28;20043;-65
2023/11/06 03:44:57;;;;;;;0.60;0.40;;;16.80;69.70;;;;;;5033286;28;20044;-65
2023/11/06 03:47:23;;;;;;;0.50;0.40;;;16.80;69.70;;;;;;5043133;28;20521;-65
2023/11/06 03:49:48;;;;;;;0.63;0.40;;;16.80;69.70;;;;;;5038939;28;20047;-66
2023/11/06 03:52:14;;;;;;;1.02;0.50;;;16.80;69.70;;;;;;5021764;28;20017;-65
2023/11/06 03:54:40;;;;;;;0.82;0.52;;;16.80;69.70;;;;;;5033871;28;20029;-65
2023/11/06 03:57:05;;;;;;;0.63;0.40;;;16.80;69.70;;;;;;5037670;28;20511;-65
2023/11/06 03:59:32;;;;;;;0.63;0.32;;;16.80;69.70;;;;;;5038835;28;20119;-65
2023/11/06 04:01:57;;;;;;;0.98;0.70;;;16.80;69.70;;;;;;5043141;28;20032;-66
2023/11/06 04:04:23;;;;;;;0.90;0.40;;;16.80;69.70;;;;;;5035876;28;20033;-66
2023/11/06 04:06:48;;;;;;;1.10;0.50;;;16.80;69.70;;;;;;5039095;28;21634;-66
2023/11/06 04:09:14;;;;;;;0.90;0.38;;;16.80;69.70;;;;;;5028139;28;20487;-65
2023/11/06 04:11:40;;;;;;;0.60;0.30;;;16.80;69.70;;;;;;5038464;28;20455;-67
2023/11/06 04:14:06;;;;;;;0.65;0.30;;;16.80;69.70;;;;;;5038184;28;20021;-65
2023/11/06 04:16:32;;;;;;;0.60;0.30;;;16.80;69.70;;;;;;5039152;28;20040;-67
2023/11/06 04:18:59;;;;;;;1.65;0.30;;;16.70;69.60;;;;;;5042510;28;20525;-68
2023/11/06 04:21:26;;;;;;;0.75;0.40;;;16.80;69.70;;;;;;5031094;28;20112;-64
2023/11/06 04:23:51;;;;;;;0.68;0.40;;;16.80;69.70;;;;;;5035251;28;20029;-64
2023/11/06 04:26:17;;;;;;;0.70;0.40;;;16.80;69.70;;;;;;5039918;28;20426;-64
2023/11/06 04:28:43;;;;;;;1.00;0.20;;;16.80;69.70;;;;;;5040241;28;20034;-66
2023/11/06 04:31:08;;;;;;;0.40;0.40;;;16.80;69.70;;;;;;5038846;28;20486;-65
2023/11/06 04:33:34;;;;;;;1.08;0.57;;;16.80;69.70;;;;;;5042224;28;20029;-66
2023/11/06 04:35:59;;;;;;;0.70;0.57;;;16.80;69.60;;;;;;5026434;28;20128;-66
2023/11/06 04:38:25;;;;;;;1.48;0.55;;;16.80;69.70;;;;;;5039142;28;20021;-65
2023/11/06 04:40:50;;;;;;;2.10;0.50;;;16.70;69.60;;;;;;5036544;28;20068;-66
2023/11/06 04:43:17;;;;;;;1.30;0.40;;;16.80;69.70;;;;;;5036851;28;20025;-65
2023/11/06 04:45:42;;;;;;;0.45;0.28;;;16.80;69.70;;;;;;5030572;28;20243;-65
2023/11/06 04:48:08;;;;;;;0.40;0.40;;;16.80;69.60;;;;;;5041564;28;20029;-65
2023/11/06 04:50:34;;;;;;;0.50;0.30;;;16.80;69.60;;;;;;5019738;28;20036;-65
2023/11/06 04:52:59;;;;;;;0.50;0.30;;;16.80;69.60;;;;;;5038566;28;20041;-65
2023/11/06 04:55:25;;;;;;;0.93;0.40;;;16.80;69.60;;;;;;5036527;28;20055;-66
2023/11/06 04:57:50;;;;;;;1.08;0.45;;;16.80;69.60;;;;;;5032066;28;20053;-66
2023/11/06 05:00:16;;;;;;;1.17;0.40;;;16.70;69.50;;;;;;5034890;28;20033;-67
2023/11/06 05:02:42;;;;;;;0.30;0.30;;;16.80;69.60;;;;;;5037040;28;20099;-66
2023/11/06 05:05:09;;;;;;;0.77;0.30;;;16.80;69.60;;;;;;5035926;28;20426;-66
2023/11/06 05:07:34;;;;;;;0.40;0.30;;;16.70;69.60;;;;;;5039904;28;20686;-67
2023/11/06 05:10:00;;;;;;;1.17;0.50;;;16.80;69.60;;;;;;5037461;28;20112;-67
2023/11/06 05:12:26;;;;;;;0.30;0.30;;;16.70;69.60;;;;;;5049333;28;20033;-67
2023/11/06 05:14:51;;;;;;;0.52;0.38;;;16.80;69.70;;;;;;5032855;28;20077;-65
2023/11/06 05:17:17;;;;;;;2.05;0.30;;;16.70;69.50;;;;;;5035449;28;20040;-67
2023/11/06 05:19:42;;;;;;;0.95;0.40;;;16.80;69.60;;;;;;5037247;28;20029;-66
2023/11/06 05:22:09;;;;;;;3.00;0.60;;;16.70;69.50;;;;;;5042460;28;20028;-67
2023/11/06 05:24:35;;;;;;;0.63;0.40;;;16.80;69.60;;;;;;5040072;28;20112;-67
2023/11/06 05:27:01;;;;;;;0.40;0.35;;;16.70;69.50;;;;;;5040148;28;20029;-66
2023/11/06 05:29:27;;;;;;;0.40;0.30;;;16.70;69.50;;;;;;5037091;28;20025;-66
2023/11/06 05:31:52;;;;;;;0.55;0.30;;;16.70;69.50;;;;;;5028769;28;20541;-67
2023/11/06 05:34:18;;;;;;;1.33;0.30;;;16.80;69.60;;;;;;5038276;28;20090;-66
2023/11/06 05:36:43;;;;;;;0.80;0.40;;;16.70;69.50;;;;;;5033985;28;20099;-65
2023/11/06 05:39:11;;;;;;;0.77;0.47;;;16.70;69.50;;;;;;5038259;28;20026;-67
2023/11/06 05:41:37;;;;;;;1.48;0.38;;;16.80;69.60;;;;;;5034687;28;20495;-67
2023/11/06 05:44:03;;;;;;;1.27;0.32;;;16.70;69.50;;;;;;5033665;28;20076;-66
2023/11/06 05:46:28;;;;;;;0.47;0.30;;;16.70;69.50;;;;;;5031219;28;20077;-66
2023/11/06 05:48:55;;;;;;;1.20;0.40;;;16.80;69.60;;;;;;5034179;28;20044;-67
2023/11/06 05:51:20;;;;;;;1.08;0.45;;;16.70;69.50;;;;;;5039597;28;20042;-67
2023/11/06 05:53:46;;;;;;;0.65;0.40;;;16.70;69.50;;;;;;5033910;28;20078;-66
2023/11/06 05:56:11;;;;;;;0.65;0.40;;;16.70;69.50;;;;;;5040467;28;20025;-67
2023/11/06 05:58:37;;;;;;;0.45;0.38;;;16.70;69.50;;;;;;5035481;28;20312;-66
2023/11/06 06:01:04;;;;;;;0.70;0.22;;;16.70;69.60;;;;;;5036471;28;20021;-66
2023/11/06 06:03:30;;;;;;;0.90;0.40;;;16.70;69.50;;;;;;5040935;28;20078;-67
2023/11/06 06:05:55;;;;;;;0.45;0.30;;;16.70;69.50;;;;;;5039162;28;20041;-67
2023/11/06 06:08:21;;;;;;;0.98;0.40;;;16.70;69.50;;;;;;5038555;28;20030;-67
2023/11/06 06:10:47;;;;;;;0.40;0.40;;;16.70;69.50;;;;;;5036628;28;20511;-66
2023/11/06 06:13:13;;;;;;;0.88;0.30;;;16.70;69.60;;;;;;5032607;28;20495;-63
2023/11/06 06:15:38;;;;;;;0.85;0.40;;;16.70;69.50;;;;;;5031364;28;20031;-67
2023/11/06 06:18:04;;;;;;;0.32;0.28;;;16.70;69.50;;;;;;5032449;28;20438;-65
2023/11/06 06:20:29;;;;;;;1.10;0.52;;;16.70;69.50;;;;;;5038134;28;20025;-65
2023/11/06 06:22:55;;;;;;;1.17;0.40;;;16.70;69.50;;;;;;5031009;28;20116;-64
2023/11/06 06:25:21;;;;;;;1.05;0.20;;;16.70;69.50;;;;;;5034125;28;20029;-63
2023/11/06 06:27:46;;;;;;;1.73;0.40;;;16.70;69.60;;;;;;5035566;28;20029;-66
2023/11/06 06:30:15;;;;;;;1.20;0.50;;;16.70;69.60;;;;;;5032136;28;20032;-64
2023/11/06 06:32:41;;;;;;;1.27;0.60;;;16.70;69.60;;;;;;5035754;28;20025;-65
2023/11/06 06:35:07;;;;;;;1.27;0.50;;;16.70;69.60;;;;;;5037788;28;20025;-64
2023/11/06 06:37:33;;;;;;;1.02;0.55;;;16.70;69.60;;;;;;5028243;28;20345;-63
2023/11/06 06:39:58;;;;;;;1.70;0.60;;;16.70;69.60;;;;;;5035983;28;20117;-65
2023/11/06 06:42:24;;;;;;;2.33;0.70;;;16.70;69.60;;;;;;5025216;28;20022;-62
2023/11/06 06:44:49;;;;;;;1.52;0.60;;;16.70;69.60;;;;;;5029985;28;20483;-65
2023/11/06 06:47:15;;;;;;;1.90;0.73;;;16.70;69.60;;;;;;5035404;28;20029;-64
2023/11/06 06:49:41;;;;;;;2.75;0.90;;;16.70;69.50;;;;;;5038207;28;20040;-64
2023/11/06 06:52:10;;;;;;;2.92;1.02;;;16.70;69.50;;;;;;5038205;28;20480;-65
2023/11/06 06:54:36;;;;;;;1.55;0.70;;;16.70;69.60;;;;;;5041874;28;20021;-66
2023/11/06 06:57:03;;;;;;;1.13;0.80;;;16.70;69.50;;;;;;5036761;28;20026;-63
2023/11/06 06:59:29;;;;;;;1.15;0.90;;;16.70;69.50;;;;;;5038597;28;20033;-65
2023/11/06 07:01:56;;;;;;;2.65;0.80;;;16.70;69.50;;;;;;5033866;28;20110;-63
2023/11/06 07:04:21;;;;;;;1.20;0.90;;;16.70;69.50;;;;;;5036965;28;20033;-62
2023/11/06 07:06:47;;;;;;;3.30;0.85;;;16.70;69.50;;;;;;5033556;28;20167;-63
2023/11/06 07:09:13;;;;;;;3.05;0.70;;;16.70;69.50;;;;;;5041548;28;20542;-64
2023/11/06 07:11:39;;;;;;;1.95;0.90;;;16.70;69.50;;;;;;5039001;28;20021;-63
2023/11/06 07:14:04;;;;;;;2.28;0.75;;;16.70;69.50;;;;;;5039763;28;20295;-64
2023/11/06 07:16:30;;;;;;;2.47;1.20;;;16.70;69.50;;;;;;5037305;28;20483;-64
2023/11/06 07:18:55;;;;;;;2.53;0.90;;;16.70;69.50;;;;;;5035361;28;20401;-66
2023/11/06 07:21:21;;;;;;;4.47;1.58;;;16.70;69.50;;;;;;5032088;28;20320;-64
2023/11/06 07:23:47;;;;;;;3.13;1.27;;;16.70;69.50;;;;;;5035752;28;20527;-67
2023/11/06 07:26:13;;;;;;;3.45;1.20;;;16.70;69.60;;;;;;5038932;28;20205;-66
2023/11/06 07:28:39;;;;;;;3.38;1.65;;;16.70;69.60;;;;;;5037485;28;20033;-67
2023/11/06 07:31:04;;;;;;;5.80;1.50;;;16.70;69.60;;;;;;5040263;28;20036;-67
2023/11/06 07:33:29;;;;;;;8.15;1.77;;;16.70;69.60;;;;;;5034972;28;20484;-66
2023/11/06 07:35:55;;;;;;;4.80;1.70;;;16.70;69.60;;;;;;5033934;28;20042;-65
2023/11/06 07:38:20;;;;;;;3.65;1.70;;;16.70;69.70;;;;;;5040032;28;20041;-66
2023/11/06 07:40:46;;;;;;;5.57;1.77;;;16.70;69.70;;;;;;5035110;28;20076;-65
2023/11/06 07:43:12;;;;;;;5.63;1.67;;;16.70;69.70;;;;;;5029042;28;20040;-65
2023/11/06 07:45:37;;;;;;;3.67;1.80;;;16.70;69.70;;;;;;4154342;28;10000841;-66
2023/11/06 07:48:05;;;;;;;5.08;1.80;;;16.70;69.70;;;;;;4234992;28;10001057;-66
2023/11/06 07:50:33;;;;;;;6.22;2.25;;;16.70;69.60;;;;;;4163022;28;10000552;-66
2023/11/06 07:52:58;;;;;;;4.38;1.80;;;16.70;69.60;;;;;;5047843;28;20029;-65
2023/11/06 07:55:24;;;;;;;6.57;2.70;;;16.70;69.60;;;;;;5055105;28;20040;-66
2023/11/06 07:57:49;;;;;;;3.90;1.77;;;16.70;69.70;;;;;;5046167;28;20406;-66
2023/11/06 08:00:15;;;;;;;4.88;1.75;;;16.70;69.70;;;;;;5047258;28;20029;-63
2023/11/06 08:02:41;;;;;;;4.85;2.55;;;16.70;69.60;;;;;;5046486;28;20338;-65
2023/11/06 08:05:11;;;;;;;4.75;2.20;;;16.70;69.70;;;;;;5046060;28;20029;-66
2023/11/06 08:07:38;;;;;;;6.13;2.58;;;16.70;69.70;;;;;;5050658;28;20025;-67
2023/11/06 08:10:09;;;;;;;5.10;2.25;;;16.70;69.70;;;;;;5051569;28;20091;-67
2023/11/06 08:12:34;;;;;;;7.57;2.30;;;16.70;69.70;;;;;;5052308;28;20033;-67
2023/11/06 08:15:00;;;;;;;6.80;2.38;;;16.70;69.70;;;;;;5047286;28;20787;-67
2023/11/06 08:17:25;;;;;;;5.60;2.20;;;16.70;69.60;;;;;;5047077;28;20040;-65
2023/11/06 08:19:52;;;;;;;5.85;2.10;;;16.70;69.70;;;;;;5045337;28;20048;-65
2023/11/06 08:22:21;;;;;;;8.07;2.90;;;16.60;69.60;;;;;;5053014;28;20075;-66
2023/11/06 08:24:47;;;;;;;5.28;1.65;;;16.70;69.60;;;;;;5048107;28;20039;-66
2023/11/06 08:27:13;;;;;;;4.88;2.05;;;16.70;69.60;;;;;;5052441;28;20394;-66
2023/11/06 08:29:42;;;;;;;4.88;1.77;;;16.70;69.60;;;;;;5049039;28;20387;-66
2023/11/06 08:32:10;;;;;;;5.57;1.92;;;16.70;69.60;;;;;;5052131;28;20695;-66
2023/11/06 08:34:42;;;;;;;4.07;1.70;;;16.70;69.60;;;;;;5052844;28;20499;-66
2023/11/06 08:37:09;;;;;;;4.97;2.00;;;16.70;69.60;;;;;;5047704;28;20079;-66
2023/11/06 08:39:35;;;;;;;5.97;2.00;;;16.60;69.50;;;;;;5047723;28;20491;-65
2023/11/06 08:42:00;;;;;;;6.97;2.28;;;16.70;69.60;;;;;;5047774;28;20037;-65
2023/11/06 08:44:26;;;;;;;4.15;1.80;;;16.70;69.60;;;;;;5054292;28;20431;-65
2023/11/06 08:46:52;;;;;;;5.22;1.90;;;16.70;69.80;;;;;;5047788;28;20040;-65
2023/11/06 08:49:17;;;;;;;3.63;1.60;;;16.70;69.60;;;;;;5049655;28;20035;-66
2023/11/06 08:51:43;;;;;;;4.80;1.90;;;16.70;69.60;;;;;;5052122;28;20051;-65
2023/11/06 08:54:09;;;;;;;7.57;2.47;;;16.70;69.60;;;;;;5048612;28;20344;-66
2023/11/06 08:56:35;;;;;;;2.17;1.33;;;16.60;69.50;;;;;;5052885;28;20458;-65
2023/11/06 08:59:01;;;;;;;3.90;1.90;;;16.70;69.50;;;;;;5052226;28;20128;-65
2023/11/06 09:01:26;;;;;;;5.70;1.42;;;16.70;69.50;;;;;;5050405;28;20250;-65
2023/11/06 09:03:53;;;;;;;5.45;2.05;;;16.70;69.50;;;;;;5049387;28;20043;-65
2023/11/06 09:06:20;;;;;;;5.10;1.50;;;16.60;69.50;;;;;;5049271;28;20512;-65
2023/11/06 09:08:45;;;;;;;3.53;1.50;;;16.70;69.50;;;;;;5051032;28;20082;-66
2023/11/06 09:11:11;;;;;;;5.57;1.33;;;16.70;69.50;;;;;;5046962;28;20025;-66
2023/11/06 09:13:36;;;;;;;4.05;1.80;;;16.70;69.50;;;;;;5047156;28;20032;-65
2023/11/06 09:16:03;;;;;;;5.05;1.55;;;16.70;69.50;;;;;;5053628;28;20064;-66
2023/11/06 09:18:29;;;;;;;3.97;1.27;;;16.70;69.50;;;;;;5051979;28;20300;-65
2023/11/06 09:20:55;;;;;;;3.20;1.42;;;16.70;69.50;;;;;;5050470;28;20035;-66
2023/11/06 09:23:23;;;;;;;8.23;1.67;;;16.70;69.50;;;;;;5051518;28;20511;-66
2023/11/06 09:25:49;;;;;;;4.28;1.95;;;16.70;69.50;;;;;;5052602;28;20029;-66
2023/11/06 09:28:15;;;;;;;4.20;1.52;;;16.70;69.50;;;;;;5052975;28;20410;-66
2023/11/06 09:30:44;;;;;;;4.35;1.90;;;16.70;69.40;;;;;;5033374;28;20039;-65
2023/11/06 09:33:11;;;;;;;5.55;1.73;;;16.70;69.50;;;;;;5045128;28;20033;-65
2023/11/06 09:35:37;;;;;;;2.50;1.10;;;16.70;69.50;;;;;;5046685;28;20399;-65
2023/11/06 09:38:03;;;;;;;2.33;1.30;;;16.70;69.50;;;;;;5050135;28;20033;-66
2023/11/06 09:40:29;;;;;;;3.88;1.45;;;16.70;69.50;;;;;;5046545;28;20152;-64
2023/11/06 09:42:55;;;;;;;2.50;1.00;;;16.60;69.40;;;;;;5049162;28;20514;-66
2023/11/06 09:45:21;;;;;;;2.78;1.65;;;16.70;69.50;;;;;;5048947;28;20036;-65
2023/11/06 09:47:51;;;;;;;2.30;1.27;;;16.70;69.50;;;;;;5046811;28;20398;-66
2023/11/06 09:50:19;;;;;;;4.63;1.48;;;16.60;69.40;;;;;;5046637;28;20474;-66
2023/11/06 09:52:48;;;;;;;3.58;1.30;;;16.60;69.40;;;;;;5046315;28;20230;-65
2023/11/06 09:55:18;;;;;;;4.10;1.40;;;16.60;69.40;;;;;;5052005;28;20036;-65
2023/11/06 09:57:44;;;;;;;2.95;1.15;;;16.60;69.40;;;;;;5050053;28;20047;-66
2023/11/06 10:00:14;;;;;;;4.10;1.30;;;16.60;69.40;;;;;;5046845;28;20047;-65
2023/11/06 10:02:39;;;;;;;1.95;1.38;;;16.60;69.40;;;;;;5047203;28;20040;-66
2023/11/06 10:05:27;;;;;;;3.95;1.30;;;16.60;69.40;;;;;;5044917;28;20025;-65
2023/11/06 10:07:54;;;;;;;1.70;1.17;;;16.60;69.40;;;;;;5048540;28;20547;-65
2023/11/06 10:10:21;;;;;;;2.53;0.75;;;16.60;69.40;;;;;;5046025;28;20483;-65
2023/11/06 10:13:01;;;;;;;2.47;1.25;;;16.60;69.40;;;;;;5046381;28;20029;-66
2023/11/06 10:15:26;;;;;;;2.63;0.73;;;16.70;69.40;;;;;;5046914;28;20105;-65
2023/11/06 10:17:52;;;;;;;1.35;0.88;;;16.60;69.40;;;;;;5048668;28;20665;-65
2023/11/06 10:20:18;;;;;;;1.83;1.00;;;16.60;69.40;;;;;;5050874;28;20530;-66
2023/11/06 10:22:55;;;;;;;1.92;1.10;;;16.60;69.40;;;;;;5047961;28;20121;-65
2023/11/06 10:25:30;;;;;;;2.20;0.75;;;16.60;69.40;;;;;;5045829;28;20142;-62
2023/11/06 10:27:56;;;;;;;1.73;1.00;;;16.70;69.40;;;;;;5048275;28;20048;-65
2023/11/06 10:30:22;;;;;;;1.92;1.17;;;16.60;69.40;;;;;;5046081;28;20112;-66
2023/11/06 10:32:48;;;;;;;3.40;0.98;;;16.60;69.40;;;;;;5048601;28;20037;-66
2023/11/06 10:35:15;;;;;;;3.30;1.23;;;16.60;69.40;;;;;;5048639;28;20044;-65
2023/11/06 10:37:42;;;;;;;2.50;0.70;;;16.60;69.40;;;;;;5043779;28;20044;-66
2023/11/06 10:40:13;;;;;;;3.80;1.25;;;16.60;69.40;;;;;;5049997;28;20166;-66
2023/11/06 10:42:43;;;;;;;2.75;1.05;;;16.60;69.30;;;;;;5049685;28;20022;-65
2023/11/06 10:45:11;;;;;;;2.05;1.13;;;16.60;69.30;;;;;;5048332;28;20287;-66
2023/11/06 10:47:42;;;;;;;1.65;0.80;;;16.60;69.30;;;;;;5047416;28;20052;-66
2023/11/06 10:50:11;;;;;;;1.55;0.80;;;16.60;69.30;;;;;;5048099;28;20112;-67
2023/11/06 10:52:41;;;;;;;4.28;1.23;;;16.60;69.30;;;;;;5047834;28;20483;-65
2023/11/06 10:55:08;;;;;;;1.98;0.90;;;16.60;69.30;;;;;;5044425;28;20029;-65
2023/11/06 10:57:34;;;;;;;2.72;1.10;;;16.60;69.30;;;;;;5045035;28;20595;-67
2023/11/06 11:00:07;;;;;;;1.40;0.80;;;16.60;69.30;;;;;;5047233;28;20450;-66
2023/11/06 11:02:35;;;;;;;0.98;0.60;;;16.60;69.30;;;;;;5046888;28;20111;-66
2023/11/06 11:05:03;;;;;;;2.50;1.30;;;16.60;69.30;;;;;;5041055;28;20094;-66
2023/11/06 11:07:30;;;;;;;2.20;0.77;;;16.60;69.30;;;;;;5047475;28;20403;-66
2023/11/06 11:09:59;;;;;;;1.50;0.88;;;16.60;69.30;;;;;;5047475;28;20033;-63
2023/11/06 11:12:25;;;;;;;2.90;0.80;;;16.60;69.90;;;;;;5046895;28;20503;-65
2023/11/06 11:14:51;;;;;;;1.95;0.80;;;16.60;69.20;;;;;;5048651;28;20495;-65
2023/11/06 11:17:17;;;;;;;1.77;0.70;;;16.60;69.30;;;;;;5049043;28;20029;-65
2023/11/06 11:19:43;;;;;;;1.70;0.77;;;16.60;69.30;;;;;;5046354;28;20064;-66
2023/11/06 11:22:10;;;;;;;1.17;0.80;;;16.60;69.30;;;;;;5046947;28;20072;-66
2023/11/06 11:24:42;;;;;;;1.27;0.55;;;16.60;69.30;;;;;;5045500;28;20662;-66
2023/11/06 11:27:09;;;;;;;1.42;0.70;;;16.60;69.30;;;;;;5042420;28;20033;-66
2023/11/06 11:29:58;;;;;;;1.88;0.80;;;16.60;69.30;;;;;;5046926;28;20031;-65
2023/11/06 11:32:29;;;;;;;1.73;0.80;;;16.60;69.30;;;;;;5046097;28;25488;-65
2023/11/06 11:35:18;;;;;;;1.38;1.02;;;16.60;69.30;;;;;;5047903;28;20476;-65
2023/11/06 11:37:57;;;;;;;2.17;0.70;;;16.60;69.20;;;;;;5011692;28;20037;-65
2023/11/06 11:40:36;;;;;;;1.23;0.60;;;16.60;69.20;;;;;;5048526;28;20040;-65
2023/11/06 11:43:23;;;;;;;2.22;0.93;;;16.60;69.20;;;;;;5047145;28;20029;-65
2023/11/06 11:45:48;;;;;;;1.52;0.75;;;16.60;69.20;;;;;;5047201;28;20055;-66
2023/11/06 11:48:15;;;;;;;2.22;0.63;;;16.70;69.30;;;;;;5048853;28;20479;-66
2023/11/06 11:50:41;;;;;;;1.65;0.75;;;16.60;69.20;;;;;;5048409;28;20109;-67
2023/11/06 11:53:08;;;;;;;1.98;0.60;;;16.60;69.30;;;;;;5048989;28;20112;-66
2023/11/06 11:55:37;;;;;;;1.15;0.70;;;16.60;69.20;;;;;;5049509;28;20039;-66
2023/11/06 11:58:14;;;;;;;2.28;0.60;;;16.60;69.20;;;;;;5048022;28;20447;-65
2023/11/06 12:00:42;;;;;;;1.10;0.70;;;16.60;69.20;;;;;;5048980;28;21842;-66
2023/11/06 12:03:11;;;;;;;1.42;0.90;;;16.60;69.20;;;;;;5051737;28;20037;-65
2023/11/06 12:05:38;;;;;;;1.15;0.52;;;16.60;69.30;;;;;;5041735;28;20076;-66
2023/11/06 12:08:21;;;;;;;1.00;0.60;;;16.60;69.20;;;;;;5061525;28;20398;-66
2023/11/06 12:10:49;;;;;;;2.40;0.70;;;16.60;69.20;;;;;;5050377;28;20056;-65
2023/11/06 12:13:23;;;;;;;2.05;0.80;;;16.60;69.20;;;;;;5048952;28;20466;-65
2023/11/06 12:15:49;;;;;;;1.73;0.63;;;16.60;69.20;;;;;;5049082;28;20059;-65
2023/11/06 12:18:16;;;;;;;1.67;0.70;;;16.60;69.20;;;;;;5048447;28;20030;-66
2023/11/06 12:20:44;;;;;;;1.73;0.70;;;16.70;69.20;;;;;;5049383;28;20041;-66
2023/11/06 12:23:10;;;;;;;1.38;0.70;;;16.60;69.20;;;;;;5049703;28;20029;-66
2023/11/06 12:25:38;;;;;;;1.67;0.45;;;16.70;69.20;;;;;;5048277;28;20035;-66
2023/11/06 12:28:13;;;;;;;0.82;0.50;;;16.60;69.20;;;;;;5045231;28;20029;-66
2023/11/06 12:30:41;;;;;;;1.50;1.00;;;16.60;69.20;;;;;;5049200;28;20029;-66
2023/11/06 12:33:11;;;;;;;1.80;0.60;;;16.60;69.20;;;;;;5049884;28;20029;-66
2023/11/06 12:35:38;;;;;;;1.50;0.60;;;16.60;69.20;;;;;;5049780;28;20037;-65
2023/11/06 12:38:04;;;;;;;1.13;0.60;;;16.60;69.20;;;;;;5049769;28;20092;-66
2023/11/06 12:40:29;;;;;;;1.00;0.55;;;16.60;69.20;;;;;;5048192;28;20025;-65
2023/11/06 12:42:56;;;;;;;1.35;0.75;;;16.60;69.10;;;;;;5050064;28;20028;-65